Disclaimer

Please do not use the information listed here in-flight or in-navigation, as they are not provided to us by the airports but are provided by volunteers, so they might be outdated.

Search


Regions


Airport information page

Radio informations:
Automatic Terminal Information Service (ATIS) - 131.5 MHz
Approach (APP) - 126.0 MHz

Airport informations:
Latitude: 46° 17' 00.00" N
Longitude: 048° 00' 22.60" E
Elevation: -65 feet - -20 meters
Operating hours: 24 hour operations
Operating agency: Civil government, landing fees and diplomatic clearance may be required
Timezone: UTC+3(+4DT) - Last Sunday in March to last Sunday in October
Fuel: Jet A1, without icing nhibitor.

Runway information:
09/27 - 8202 x 138 feet< - >2500 x 42 meters
11/29 - 5090 x 330 feet< - >1551 x 101 meters

Recent METARs:
URWA 211000Z 32005MPS 290V350 CAVOK 05/M20 Q1018 R27/010070 NOSIG RMK QFE765/1020
URWA 211030Z 31005MPS 290V350 CAVOK 05/M20 Q1017 R27/010070 NOSIG RMK QFE765/1020
URWA 211100Z 33004MPS CAVOK 05/M20 Q1017 R27/010070 NOSIG RMK QFE765/1020

Airport on the map: